sensor_id;sensor_type;location;lat;lon;timestamp;P1;durP1;ratioP1;P2;durP2;ratioP2
32838;SDS011;19182;41.820;12.808;2023-06-14T00:01:54;6.05;;;4.60;;
32838;SDS011;19182;41.820;12.808;2023-06-14T00:04:20;6.75;;;4.88;;
32838;SDS011;19182;41.820;12.808;2023-06-14T00:06:50;8.15;;;4.45;;
32838;SDS011;19182;41.820;12.808;2023-06-14T00:09:16;8.55;;;4.35;;
32838;SDS011;19182;41.820;12.808;2023-06-14T00:11:43;6.15;;;3.70;;
32838;SDS011;19182;41.820;12.808;2023-06-14T00:14:08;8.02;;;3.63;;
32838;SDS011;19182;41.820;12.808;2023-06-14T00:16:35;7.00;;;3.65;;
32838;SDS011;19182;41.820;12.808;2023-06-14T00:19:03;8.05;;;4.28;;
32838;SDS011;19182;41.820;12.808;2023-06-14T00:21:31;11.35;;;4.47;;
32838;SDS011;19182;41.820;12.808;2023-06-14T00:23:57;7.40;;;3.97;;
32838;SDS011;19182;41.820;12.808;2023-06-14T00:26:24;4.25;;;3.45;;
32838;SDS011;19182;41.820;12.808;2023-06-14T00:28:51;8.05;;;4.30;;
32838;SDS011;19182;41.820;12.808;2023-06-14T00:31:17;5.53;;;3.95;;
32838;SDS011;19182;41.820;12.808;2023-06-14T00:33:44;8.20;;;4.07;;
32838;SDS011;19182;41.820;12.808;2023-06-14T00:36:10;6.28;;;4.40;;
32838;SDS011;19182;41.820;12.808;2023-06-14T00:38:36;6.00;;;3.97;;
32838;SDS011;19182;41.820;12.808;2023-06-14T00:41:03;7.07;;;3.90;;
32838;SDS011;19182;41.820;12.808;2023-06-14T00:43:28;7.55;;;3.95;;
32838;SDS011;19182;41.820;12.808;2023-06-14T00:45:54;6.55;;;4.25;;
32838;SDS011;19182;41.820;12.808;2023-06-14T00:48:21;8.82;;;3.88;;
32838;SDS011;19182;41.820;12.808;2023-06-14T00:50:47;6.72;;;4.80;;
32838;SDS011;19182;41.820;12.808;2023-06-14T00:53:16;6.20;;;4.40;;
32838;SDS011;19182;41.820;12.808;2023-06-14T00:58:11;7.28;;;4.10;;
32838;SDS011;19182;41.820;12.808;2023-06-14T01:00:37;12.55;;;4.68;;
32838;SDS011;19182;41.820;12.808;2023-06-14T01:03:04;5.63;;;4.25;;
32838;SDS011;19182;41.820;12.808;2023-06-14T01:05:31;9.27;;;4.72;;
32838;SDS011;19182;41.820;12.808;2023-06-14T01:11:07;8.15;;;4.25;;
32838;SDS011;19182;41.820;12.808;2023-06-14T01:13:42;18.13;;;4.38;;
32838;SDS011;19182;41.820;12.808;2023-06-14T01:16:11;10.65;;;4.60;;
32838;SDS011;19182;41.820;12.808;2023-06-14T01:18:37;9.30;;;4.25;;
32838;SDS011;19182;41.820;12.808;2023-06-14T01:21:03;7.90;;;4.97;;
32838;SDS011;19182;41.820;12.808;2023-06-14T01:25:59;12.90;;;4.20;;
32838;SDS011;19182;41.820;12.808;2023-06-14T01:28:26;8.60;;;4.45;;
32838;SDS011;19182;41.820;12.808;2023-06-14T01:30:57;6.78;;;4.00;;
32838;SDS011;19182;41.820;12.808;2023-06-14T01:33:29;11.15;;;4.35;;
32838;SDS011;19182;41.820;12.808;2023-06-14T01:35:57;12.98;;;4.88;;
32838;SDS011;19182;41.820;12.808;2023-06-14T01:38:24;5.45;;;4.10;;
32838;SDS011;19182;41.820;12.808;2023-06-14T01:40:51;6.32;;;4.32;;
32838;SDS011;19182;41.820;12.808;2023-06-14T01:43:20;6.80;;;4.77;;
32838;SDS011;19182;41.820;12.808;2023-06-14T01:45:47;11.50;;;4.70;;
32838;SDS011;19182;41.820;12.808;2023-06-14T01:48:14;4.90;;;4.40;;
32838;SDS011;19182;41.820;12.808;2023-06-14T01:50:40;9.30;;;4.78;;
32838;SDS011;19182;41.820;12.808;2023-06-14T01:53:07;10.02;;;4.40;;
32838;SDS011;19182;41.820;12.808;2023-06-14T01:55:35;8.55;;;4.65;;
32838;SDS011;19182;41.820;12.808;2023-06-14T01:58:02;11.60;;;4.63;;
32838;SDS011;19182;41.820;12.808;2023-06-14T02:00:29;8.07;;;4.32;;
32838;SDS011;19182;41.820;12.808;2023-06-14T02:02:55;7.43;;;4.65;;
32838;SDS011;19182;41.820;12.808;2023-06-14T02:05:21;10.43;;;4.55;;
32838;SDS011;19182;41.820;12.808;2023-06-14T02:07:47;9.43;;;4.82;;
32838;SDS011;19182;41.820;12.808;2023-06-14T02:10:13;10.23;;;5.38;;
32838;SDS011;19182;41.820;12.808;2023-06-14T02:12:40;9.93;;;4.32;;
32838;SDS011;19182;41.820;12.808;2023-06-14T02:15:06;8.73;;;4.70;;
32838;SDS011;19182;41.820;12.808;2023-06-14T02:17:33;5.88;;;4.90;;
32838;SDS011;19182;41.820;12.808;2023-06-14T02:19:59;8.20;;;4.57;;
32838;SDS011;19182;41.820;12.808;2023-06-14T02:22:25;7.10;;;4.18;;
32838;SDS011;19182;41.820;12.808;2023-06-14T02:24:51;23.45;;;5.72;;
32838;SDS011;19182;41.820;12.808;2023-06-14T02:27:17;11.52;;;4.57;;
32838;SDS011;19182;41.820;12.808;2023-06-14T02:29:43;8.55;;;4.47;;
32838;SDS011;19182;41.820;12.808;2023-06-14T02:32:09;5.80;;;4.40;;
32838;SDS011;19182;41.820;12.808;2023-06-14T02:34:35;4.65;;;4.25;;
32838;SDS011;19182;41.820;12.808;2023-06-14T02:37:01;6.32;;;4.22;;
32838;SDS011;19182;41.820;12.808;2023-06-14T02:39:33;8.25;;;4.43;;
32838;SDS011;19182;41.820;12.808;2023-06-14T02:41:59;6.85;;;3.92;;
32838;SDS011;19182;41.820;12.808;2023-06-14T02:44:25;8.38;;;3.72;;
32838;SDS011;19182;41.820;12.808;2023-06-14T02:46:52;5.30;;;4.05;;
32838;SDS011;19182;41.820;12.808;2023-06-14T02:49:22;4.72;;;4.00;;
32838;SDS011;19182;41.820;12.808;2023-06-14T02:51:48;8.75;;;4.95;;
32838;SDS011;19182;41.820;12.808;2023-06-14T02:54:13;4.90;;;3.80;;
32838;SDS011;19182;41.820;12.808;2023-06-14T02:56:41;5.93;;;4.47;;
32838;SDS011;19182;41.820;12.808;2023-06-14T02:59:06;7.88;;;4.15;;
32838;SDS011;19182;41.820;12.808;2023-06-14T03:01:34;7.93;;;3.83;;
32838;SDS011;19182;41.820;12.808;2023-06-14T03:04:03;7.72;;;3.40;;
32838;SDS011;19182;41.820;12.808;2023-06-14T03:06:30;11.65;;;3.22;;
32838;SDS011;19182;41.820;12.808;2023-06-14T03:08:56;8.80;;;4.00;;
32838;SDS011;19182;41.820;12.808;2023-06-14T03:11:25;7.80;;;3.65;;
32838;SDS011;19182;41.820;12.808;2023-06-14T03:13:51;8.30;;;3.78;;
32838;SDS011;19182;41.820;12.808;2023-06-14T03:16:17;5.85;;;3.80;;
32838;SDS011;19182;41.820;12.808;2023-06-14T03:18:46;6.97;;;4.03;;
32838;SDS011;19182;41.820;12.808;2023-06-14T03:21:15;4.28;;;3.85;;
32838;SDS011;19182;41.820;12.808;2023-06-14T03:23:42;9.93;;;3.95;;
32838;SDS011;19182;41.820;12.808;2023-06-14T03:26:08;8.35;;;4.70;;
32838;SDS011;19182;41.820;12.808;2023-06-14T03:28:34;9.40;;;4.78;;
32838;SDS011;19182;41.820;12.808;2023-06-14T03:30:59;7.85;;;4.60;;
32838;SDS011;19182;41.820;12.808;2023-06-14T03:36:48;7.45;;;5.28;;
32838;SDS011;19182;41.820;12.808;2023-06-14T03:39:14;8.98;;;5.10;;
32838;SDS011;19182;41.820;12.808;2023-06-14T03:41:40;7.53;;;4.60;;
32838;SDS011;19182;41.820;12.808;2023-06-14T03:44:06;10.63;;;4.72;;
32838;SDS011;19182;41.820;12.808;2023-06-14T04:13:14;5.50;;;4.55;;
32838;SDS011;19182;41.820;12.808;2023-06-14T04:15:40;6.10;;;4.53;;
32838;SDS011;19182;41.820;12.808;2023-06-14T04:18:10;6.30;;;4.70;;
32838;SDS011;19182;41.820;12.808;2023-06-14T04:20:36;6.47;;;4.20;;
32838;SDS011;19182;41.820;12.808;2023-06-14T04:23:15;7.03;;;4.70;;
32838;SDS011;19182;41.820;12.808;2023-06-14T04:25:46;6.55;;;4.22;;
32838;SDS011;19182;41.820;12.808;2023-06-14T05:00:11;7.68;;;4.40;;
32838;SDS011;19182;41.820;12.808;2023-06-14T05:02:39;6.15;;;4.20;;
32838;SDS011;19182;41.820;12.808;2023-06-14T05:05:05;11.05;;;4.65;;
32838;SDS011;19182;41.820;12.808;2023-06-14T05:07:32;5.47;;;4.63;;
32838;SDS011;19182;41.820;12.808;2023-06-14T05:09:58;5.40;;;4.25;;
32838;SDS011;19182;41.820;12.808;2023-06-14T05:12:24;11.40;;;4.30;;
32838;SDS011;19182;41.820;12.808;2023-06-14T05:14:50;3.83;;;3.42;;
32838;SDS011;19182;41.820;12.808;2023-06-14T05:17:16;4.43;;;3.67;;
32838;SDS011;19182;41.820;12.808;2023-06-14T05:19:42;7.43;;;4.60;;
32838;SDS011;19182;41.820;12.808;2023-06-14T05:22:08;7.85;;;4.45;;
32838;SDS011;19182;41.820;12.808;2023-06-14T05:24:34;5.85;;;4.07;;
32838;SDS011;19182;41.820;12.808;2023-06-14T05:27:00;7.28;;;4.15;;
32838;SDS011;19182;41.820;12.808;2023-06-14T05:29:26;4.53;;;3.88;;
32838;SDS011;19182;41.820;12.808;2023-06-14T05:31:52;3.97;;;3.25;;
32838;SDS011;19182;41.820;12.808;2023-06-14T05:34:18;5.55;;;3.83;;
32838;SDS011;19182;41.820;12.808;2023-06-14T05:36:43;6.55;;;4.03;;
32838;SDS011;19182;41.820;12.808;2023-06-14T05:39:09;5.03;;;3.75;;
32838;SDS011;19182;41.820;12.808;2023-06-14T05:41:35;9.20;;;4.20;;
32838;SDS011;19182;41.820;12.808;2023-06-14T05:44:01;4.70;;;3.90;;
32838;SDS011;19182;41.820;12.808;2023-06-14T05:46:26;6.60;;;3.88;;
32838;SDS011;19182;41.820;12.808;2023-06-14T05:48:53;10.05;;;4.38;;
32838;SDS011;19182;41.820;12.808;2023-06-14T05:51:20;7.70;;;3.55;;
32838;SDS011;19182;41.820;12.808;2023-06-14T05:53:49;4.38;;;3.97;;
32838;SDS011;19182;41.820;12.808;2023-06-14T05:56:15;4.45;;;4.03;;
32838;SDS011;19182;41.820;12.808;2023-06-14T05:58:46;5.60;;;4.30;;
32838;SDS011;19182;41.820;12.808;2023-06-14T06:01:12;4.15;;;3.72;;
32838;SDS011;19182;41.820;12.808;2023-06-14T06:03:38;5.28;;;3.75;;
32838;SDS011;19182;41.820;12.808;2023-06-14T06:06:04;8.43;;;4.00;;
32838;SDS011;19182;41.820;12.808;2023-06-14T06:08:29;5.72;;;4.13;;
32838;SDS011;19182;41.820;12.808;2023-06-14T06:10:57;7.97;;;3.58;;
32838;SDS011;19182;41.820;12.808;2023-06-14T06:13:25;6.32;;;3.95;;
32838;SDS011;19182;41.820;12.808;2023-06-14T06:15:52;4.22;;;3.33;;
32838;SDS011;19182;41.820;12.808;2023-06-14T06:18:19;6.00;;;3.50;;
32838;SDS011;19182;41.820;12.808;2023-06-14T06:20:44;6.22;;;3.90;;
32838;SDS011;19182;41.820;12.808;2023-06-14T06:23:12;3.85;;;3.45;;
32838;SDS011;19182;41.820;12.808;2023-06-14T06:25:39;4.50;;;3.40;;
32838;SDS011;19182;41.820;12.808;2023-06-14T06:28:06;6.13;;;3.50;;
32838;SDS011;19182;41.820;12.808;2023-06-14T06:30:31;4.95;;;3.13;;
32838;SDS011;19182;41.820;12.808;2023-06-14T06:32:57;5.18;;;3.45;;
32838;SDS011;19182;41.820;12.808;2023-06-14T06:35:23;5.75;;;2.80;;
32838;SDS011;19182;41.820;12.808;2023-06-14T06:37:49;4.55;;;2.95;;
32838;SDS011;19182;41.820;12.808;2023-06-14T06:40:15;3.47;;;3.17;;
32838;SDS011;19182;41.820;12.808;2023-06-14T06:42:41;6.63;;;3.15;;
32838;SDS011;19182;41.820;12.808;2023-06-14T06:45:06;4.82;;;2.90;;
32838;SDS011;19182;41.820;12.808;2023-06-14T06:47:32;5.57;;;2.78;;
32838;SDS011;19182;41.820;12.808;2023-06-14T06:49:58;3.75;;;3.33;;
32838;SDS011;19182;41.820;12.808;2023-06-14T06:52:23;6.10;;;3.00;;
32838;SDS011;19182;41.820;12.808;2023-06-14T06:54:49;3.10;;;2.80;;
32838;SDS011;19182;41.820;12.808;2023-06-14T06:57:19;6.32;;;2.92;;
32838;SDS011;19182;41.820;12.808;2023-06-14T06:59:47;2.90;;;2.55;;
32838;SDS011;19182;41.820;12.808;2023-06-14T07:02:15;3.17;;;2.63;;
32838;SDS011;19182;41.820;12.808;2023-06-14T07:04:41;3.70;;;2.53;;
32838;SDS011;19182;41.820;12.808;2023-06-14T07:07:06;4.20;;;2.85;;
32838;SDS011;19182;41.820;12.808;2023-06-14T07:09:34;3.65;;;2.65;;
32838;SDS011;19182;41.820;12.808;2023-06-14T07:12:00;6.30;;;3.00;;
32838;SDS011;19182;41.820;12.808;2023-06-14T07:14:26;4.03;;;2.53;;
32838;SDS011;19182;41.820;12.808;2023-06-14T07:16:51;2.42;;;2.15;;
32838;SDS011;19182;41.820;12.808;2023-06-14T07:19:18;3.58;;;2.40;;
32838;SDS011;19182;41.820;12.808;2023-06-14T07:21:44;2.67;;;2.47;;
32838;SDS011;19182;41.820;12.808;2023-06-14T07:24:10;4.10;;;2.25;;
32838;SDS011;19182;41.820;12.808;2023-06-14T07:26:36;3.42;;;2.67;;
32838;SDS011;19182;41.820;12.808;2023-06-14T07:29:02;4.95;;;2.70;;
32838;SDS011;19182;41.820;12.808;2023-06-14T07:31:28;2.88;;;2.40;;
32838;SDS011;19182;41.820;12.808;2023-06-14T07:33:54;3.33;;;2.25;;
32838;SDS011;19182;41.820;12.808;2023-06-14T07:36:20;5.03;;;2.60;;
32838;SDS011;19182;41.820;12.808;2023-06-14T07:38:45;2.58;;;2.38;;
32838;SDS011;19182;41.820;12.808;2023-06-14T07:41:11;2.67;;;2.30;;
32838;SDS011;19182;41.820;12.808;2023-06-14T07:43:37;5.00;;;2.17;;
32838;SDS011;19182;41.820;12.808;2023-06-14T07:46:03;2.33;;;2.03;;
32838;SDS011;19182;41.820;12.808;2023-06-14T07:48:29;3.58;;;2.30;;
32838;SDS011;19182;41.820;12.808;2023-06-14T07:50:56;3.40;;;2.65;;
32838;SDS011;19182;41.820;12.808;2023-06-14T07:53:21;7.55;;;2.33;;
32838;SDS011;19182;41.820;12.808;2023-06-14T07:55:47;3.65;;;1.83;;
32838;SDS011;19182;41.820;12.808;2023-06-14T07:58:13;4.93;;;2.03;;
32838;SDS011;19182;41.820;12.808;2023-06-14T08:00:39;2.92;;;1.90;;
32838;SDS011;19182;41.820;12.808;2023-06-14T08:03:05;3.38;;;1.92;;
32838;SDS011;19182;41.820;12.808;2023-06-14T08:05:30;7.88;;;2.13;;
32838;SDS011;19182;41.820;12.808;2023-06-14T08:07:56;3.22;;;1.80;;
32838;SDS011;19182;41.820;12.808;2023-06-14T08:10:22;3.13;;;2.20;;
32838;SDS011;19182;41.820;12.808;2023-06-14T08:12:48;4.35;;;1.85;;
32838;SDS011;19182;41.820;12.808;2023-06-14T08:15:15;1.90;;;1.80;;
32838;SDS011;19182;41.820;12.808;2023-06-14T08:17:44;3.33;;;1.88;;
32838;SDS011;19182;41.820;12.808;2023-06-14T08:20:10;3.28;;;1.90;;
32838;SDS011;19182;41.820;12.808;2023-06-14T08:22:36;3.75;;;1.95;;
32838;SDS011;19182;41.820;12.808;2023-06-14T08:25:04;3.42;;;1.80;;
32838;SDS011;19182;41.820;12.808;2023-06-14T08:27:31;3.40;;;1.80;;
32838;SDS011;19182;41.820;12.808;2023-06-14T08:29:57;2.42;;;1.70;;
32838;SDS011;19182;41.820;12.808;2023-06-14T08:32:23;5.80;;;1.70;;
32838;SDS011;19182;41.820;12.808;2023-06-14T08:34:50;2.72;;;2.20;;
32838;SDS011;19182;41.820;12.808;2023-06-14T08:37:16;2.85;;;2.05;;
32838;SDS011;19182;41.820;12.808;2023-06-14T08:39:41;3.80;;;2.03;;
32838;SDS011;19182;41.820;12.808;2023-06-14T08:42:09;2.83;;;1.98;;
32838;SDS011;19182;41.820;12.808;2023-06-14T08:44:35;4.22;;;2.00;;
32838;SDS011;19182;41.820;12.808;2023-06-14T08:47:01;2.42;;;1.90;;
32838;SDS011;19182;41.820;12.808;2023-06-14T08:49:28;2.58;;;1.67;;
32838;SDS011;19182;41.820;12.808;2023-06-14T08:51:57;2.15;;;1.50;;
32838;SDS011;19182;41.820;12.808;2023-06-14T08:54:25;2.80;;;1.65;;
32838;SDS011;19182;41.820;12.808;2023-06-14T08:56:53;4.32;;;1.73;;
32838;SDS011;19182;41.820;12.808;2023-06-14T08:59:23;2.42;;;1.67;;
32838;SDS011;19182;41.820;12.808;2023-06-14T09:01:52;4.32;;;1.80;;
32838;SDS011;19182;41.820;12.808;2023-06-14T09:04:19;2.88;;;1.67;;
32838;SDS011;19182;41.820;12.808;2023-06-14T09:06:56;5.45;;;2.13;;
32838;SDS011;19182;41.820;12.808;2023-06-14T09:09:21;1.90;;;1.70;;
32838;SDS011;19182;41.820;12.808;2023-06-14T09:11:53;3.60;;;1.92;;
32838;SDS011;19182;41.820;12.808;2023-06-14T09:14:21;2.65;;;1.80;;
32838;SDS011;19182;41.820;12.808;2023-06-14T09:16:51;4.82;;;2.03;;
32838;SDS011;19182;41.820;12.808;2023-06-14T09:19:21;4.85;;;2.30;;
32838;SDS011;19182;41.820;12.808;2023-06-14T09:21:48;6.72;;;2.20;;
32838;SDS011;19182;41.820;12.808;2023-06-14T09:24:15;5.43;;;3.53;;
32838;SDS011;19182;41.820;12.808;2023-06-14T09:26:40;3.38;;;2.75;;
32838;SDS011;19182;41.820;12.808;2023-06-14T09:29:06;3.17;;;2.15;;
32838;SDS011;19182;41.820;12.808;2023-06-14T09:31:32;4.72;;;2.72;;
32838;SDS011;19182;41.820;12.808;2023-06-14T09:33:58;3.22;;;2.75;;
32838;SDS011;19182;41.820;12.808;2023-06-14T09:36:26;5.60;;;2.50;;
32838;SDS011;19182;41.820;12.808;2023-06-14T09:38:53;4.22;;;1.90;;
32838;SDS011;19182;41.820;12.808;2023-06-14T09:41:38;3.25;;;1.73;;
32838;SDS011;19182;41.820;12.808;2023-06-14T09:44:25;9.13;;;1.92;;
32838;SDS011;19182;41.820;12.808;2023-06-14T09:46:53;4.53;;;2.13;;
32838;SDS011;19182;41.820;12.808;2023-06-14T09:49:21;2.58;;;1.80;;
32838;SDS011;19182;41.820;12.808;2023-06-14T09:51:49;2.47;;;2.20;;
32838;SDS011;19182;41.820;12.808;2023-06-14T10:21:04;4.95;;;3.03;;
32838;SDS011;19182;41.820;12.808;2023-06-14T10:23:35;6.97;;;3.13;;
32838;SDS011;19182;41.820;12.808;2023-06-14T10:26:05;4.00;;;3.10;;
32838;SDS011;19182;41.820;12.808;2023-06-14T10:28:31;4.75;;;3.60;;
32838;SDS011;19182;41.820;12.808;2023-06-14T10:31:08;8.40;;;3.75;;
32838;SDS011;19182;41.820;12.808;2023-06-14T10:33:56;6.05;;;3.70;;
32838;SDS011;19182;41.820;12.808;2023-06-14T10:38:57;6.03;;;3.53;;
32838;SDS011;19182;41.820;12.808;2023-06-14T10:41:31;7.30;;;3.47;;
32838;SDS011;19182;41.820;12.808;2023-06-14T10:46:39;9.98;;;4.45;;
32838;SDS011;19182;41.820;12.808;2023-06-14T10:49:05;6.50;;;4.07;;
32838;SDS011;19182;41.820;12.808;2023-06-14T10:51:38;8.63;;;3.95;;
32838;SDS011;19182;41.820;12.808;2023-06-14T10:54:15;5.88;;;3.55;;
32838;SDS011;19182;41.820;12.808;2023-06-14T10:56:48;4.97;;;4.18;;
32838;SDS011;19182;41.820;12.808;2023-06-14T10:59:16;6.05;;;3.63;;
32838;SDS011;19182;41.820;12.808;2023-06-14T11:04:51;5.88;;;3.35;;
32838;SDS011;19182;41.820;12.808;2023-06-14T11:12:55;5.47;;;2.65;;
32838;SDS011;19182;41.820;12.808;2023-06-14T11:15:27;3.17;;;2.72;;
32838;SDS011;19182;41.820;12.808;2023-06-14T11:17:57;6.03;;;2.15;;
32838;SDS011;19182;41.820;12.808;2023-06-14T11:20:25;4.57;;;2.27;;
32838;SDS011;19182;41.820;12.808;2023-06-14T11:22:52;3.53;;;2.63;;
32838;SDS011;19182;41.820;12.808;2023-06-14T11:25:18;4.20;;;3.08;;
32838;SDS011;19182;41.820;12.808;2023-06-14T11:27:44;3.75;;;2.95;;
32838;SDS011;19182;41.820;12.808;2023-06-14T11:30:10;6.47;;;2.90;;
32838;SDS011;19182;41.820;12.808;2023-06-14T11:32:38;5.07;;;2.45;;
32838;SDS011;19182;41.820;12.808;2023-06-14T11:35:04;5.32;;;2.80;;
32838;SDS011;19182;41.820;12.808;2023-06-14T11:37:31;4.38;;;3.17;;
32838;SDS011;19182;41.820;12.808;2023-06-14T11:40:00;4.10;;;3.00;;
32838;SDS011;19182;41.820;12.808;2023-06-14T11:42:26;6.15;;;3.30;;
32838;SDS011;19182;41.820;12.808;2023-06-14T11:44:53;4.38;;;3.67;;
32838;SDS011;19182;41.820;12.808;2023-06-14T11:47:20;6.20;;;4.13;;
32838;SDS011;19182;41.820;12.808;2023-06-14T11:49:46;5.43;;;4.38;;
32838;SDS011;19182;41.820;12.808;2023-06-14T11:52:12;5.25;;;4.00;;
32838;SDS011;19182;41.820;12.808;2023-06-14T11:54:38;6.45;;;4.38;;
32838;SDS011;19182;41.820;12.808;2023-06-14T11:57:06;6.03;;;4.22;;
32838;SDS011;19182;41.820;12.808;2023-06-14T11:59:38;6.80;;;4.43;;
32838;SDS011;19182;41.820;12.808;2023-06-14T12:02:09;5.65;;;4.13;;
32838;SDS011;19182;41.820;12.808;2023-06-14T12:04:40;7.35;;;5.05;;
32838;SDS011;19182;41.820;12.808;2023-06-14T12:10:27;8.50;;;4.70;;
32838;SDS011;19182;41.820;12.808;2023-06-14T12:12:34;7.82;;;4.60;;
32838;SDS011;19182;41.820;12.808;2023-06-14T12:15:02;6.78;;;4.15;;
32838;SDS011;19182;41.820;12.808;2023-06-14T12:17:31;5.55;;;4.18;;
32838;SDS011;19182;41.820;12.808;2023-06-14T12:19:58;5.38;;;4.70;;
32838;SDS011;19182;41.820;12.808;2023-06-14T12:22:23;8.18;;;5.45;;
32838;SDS011;19182;41.820;12.808;2023-06-14T12:24:49;12.45;;;5.13;;
32838;SDS011;19182;41.820;12.808;2023-06-14T12:27:15;5.85;;;4.50;;
32838;SDS011;19182;41.820;12.808;2023-06-14T12:29:43;6.00;;;4.50;;
32838;SDS011;19182;41.820;12.808;2023-06-14T12:32:09;5.15;;;4.65;;
32838;SDS011;19182;41.820;12.808;2023-06-14T12:34:35;4.60;;;3.30;;
32838;SDS011;19182;41.820;12.808;2023-06-14T12:37:01;5.25;;;3.72;;
32838;SDS011;19182;41.820;12.808;2023-06-14T12:39:29;5.35;;;3.58;;
32838;SDS011;19182;41.820;12.808;2023-06-14T12:41:56;3.53;;;2.33;;
32838;SDS011;19182;41.820;12.808;2023-06-14T12:44:22;3.33;;;3.00;;
32838;SDS011;19182;41.820;12.808;2023-06-14T12:46:48;3.20;;;2.58;;
32838;SDS011;19182;41.820;12.808;2023-06-14T12:49:16;4.85;;;3.00;;
32838;SDS011;19182;41.820;12.808;2023-06-14T12:51:42;7.20;;;2.67;;
32838;SDS011;19182;41.820;12.808;2023-06-14T12:54:08;3.90;;;2.85;;
32838;SDS011;19182;41.820;12.808;2023-06-14T12:56:34;5.82;;;3.03;;
32838;SDS011;19182;41.820;12.808;2023-06-14T12:59:00;3.25;;;2.88;;
32838;SDS011;19182;41.820;12.808;2023-06-14T13:01:26;4.45;;;2.97;;
32838;SDS011;19182;41.820;12.808;2023-06-14T13:03:52;4.00;;;2.50;;
32838;SDS011;19182;41.820;12.808;2023-06-14T13:06:21;2.95;;;2.67;;
32838;SDS011;19182;41.820;12.808;2023-06-14T13:08:47;6.53;;;3.80;;
32838;SDS011;19182;41.820;12.808;2023-06-14T13:11:13;5.95;;;3.15;;
32838;SDS011;19182;41.820;12.808;2023-06-14T13:13:39;5.25;;;3.05;;
32838;SDS011;19182;41.820;12.808;2023-06-14T13:16:05;4.78;;;3.53;;
32838;SDS011;19182;41.820;12.808;2023-06-14T13:18:31;5.90;;;3.50;;
32838;SDS011;19182;41.820;12.808;2023-06-14T13:20:57;6.72;;;3.75;;
32838;SDS011;19182;41.820;12.808;2023-06-14T13:23:23;7.82;;;3.38;;
32838;SDS011;19182;41.820;12.808;2023-06-14T13:25:49;8.25;;;4.22;;
32838;SDS011;19182;41.820;12.808;2023-06-14T13:28:18;8.40;;;3.85;;
32838;SDS011;19182;41.820;12.808;2023-06-14T13:30:43;5.20;;;3.72;;
32838;SDS011;19182;41.820;12.808;2023-06-14T13:33:10;5.55;;;3.53;;
32838;SDS011;19182;41.820;12.808;2023-06-14T13:35:35;8.30;;;4.55;;
32838;SDS011;19182;41.820;12.808;2023-06-14T13:38:01;4.80;;;3.97;;
32838;SDS011;19182;41.820;12.808;2023-06-14T13:40:27;4.70;;;3.47;;
32838;SDS011;19182;41.820;12.808;2023-06-14T13:42:53;6.38;;;3.28;;
32838;SDS011;19182;41.820;12.808;2023-06-14T13:45:18;5.60;;;3.70;;
32838;SDS011;19182;41.820;12.808;2023-06-14T13:47:44;6.78;;;4.30;;
32838;SDS011;19182;41.820;12.808;2023-06-14T13:50:13;5.47;;;4.55;;
32838;SDS011;19182;41.820;12.808;2023-06-14T13:52:39;8.63;;;4.10;;
32838;SDS011;19182;41.820;12.808;2023-06-14T13:55:05;4.82;;;3.95;;
32838;SDS011;19182;41.820;12.808;2023-06-14T13:57:31;12.60;;;4.95;;
32838;SDS011;19182;41.820;12.808;2023-06-14T13:59:57;8.85;;;4.22;;
32838;SDS011;19182;41.820;12.808;2023-06-14T14:02:27;8.20;;;4.80;;
32838;SDS011;19182;41.820;12.808;2023-06-14T14:04:54;9.02;;;5.45;;
32838;SDS011;19182;41.820;12.808;2023-06-14T14:07:20;10.07;;;5.28;;
32838;SDS011;19182;41.820;12.808;2023-06-14T14:09:47;7.63;;;5.40;;
32838;SDS011;19182;41.820;12.808;2023-06-14T14:12:13;7.55;;;5.68;;
32838;SDS011;19182;41.820;12.808;2023-06-14T14:14:39;9.80;;;6.22;;
32838;SDS011;19182;41.820;12.808;2023-06-14T14:17:05;8.80;;;5.85;;
32838;SDS011;19182;41.820;12.808;2023-06-14T14:19:31;7.20;;;4.93;;
32838;SDS011;19182;41.820;12.808;2023-06-14T14:21:58;7.70;;;5.50;;
32838;SDS011;19182;41.820;12.808;2023-06-14T14:24:23;8.80;;;6.20;;
32838;SDS011;19182;41.820;12.808;2023-06-14T14:26:49;11.10;;;5.80;;
32838;SDS011;19182;41.820;12.808;2023-06-14T14:29:18;7.70;;;5.07;;
32838;SDS011;19182;41.820;12.808;2023-06-14T14:31:45;7.55;;;4.78;;
32838;SDS011;19182;41.820;12.808;2023-06-14T14:34:10;6.50;;;5.45;;
32838;SDS011;19182;41.820;12.808;2023-06-14T14:36:36;7.22;;;5.20;;
32838;SDS011;19182;41.820;12.808;2023-06-14T14:39:07;8.77;;;5.40;;
32838;SDS011;19182;41.820;12.808;2023-06-14T14:41:33;10.10;;;5.30;;
32838;SDS011;19182;41.820;12.808;2023-06-14T14:43:59;9.20;;;5.40;;
32838;SDS011;19182;41.820;12.808;2023-06-14T14:46:25;7.43;;;5.13;;
32838;SDS011;19182;41.820;12.808;2023-06-14T14:48:52;9.55;;;5.30;;
32838;SDS011;19182;41.820;12.808;2023-06-14T14:51:18;6.38;;;4.30;;
32838;SDS011;19182;41.820;12.808;2023-06-14T14:53:43;11.00;;;4.88;;
32838;SDS011;19182;41.820;12.808;2023-06-14T14:56:11;5.18;;;3.58;;
32838;SDS011;19182;41.820;12.808;2023-06-14T14:58:37;6.95;;;4.18;;
32838;SDS011;19182;41.820;12.808;2023-06-14T15:01:03;7.43;;;3.80;;
32838;SDS011;19182;41.820;12.808;2023-06-14T15:03:30;7.80;;;3.83;;
32838;SDS011;19182;41.820;12.808;2023-06-14T15:05:56;8.43;;;3.30;;
32838;SDS011;19182;41.820;12.808;2023-06-14T15:08:22;7.05;;;3.85;;
32838;SDS011;19182;41.820;12.808;2023-06-14T15:10:49;10.45;;;3.88;;
32838;SDS011;19182;41.820;12.808;2023-06-14T15:13:15;5.88;;;3.90;;
32838;SDS011;19182;41.820;12.808;2023-06-14T15:15:40;5.63;;;4.25;;
32838;SDS011;19182;41.820;12.808;2023-06-14T15:18:08;6.70;;;4.10;;
32838;SDS011;19182;41.820;12.808;2023-06-14T15:20:34;3.92;;;3.22;;
32838;SDS011;19182;41.820;12.808;2023-06-14T15:23:00;5.88;;;3.85;;
32838;SDS011;19182;41.820;12.808;2023-06-14T15:25:26;4.25;;;3.60;;
32838;SDS011;19182;41.820;12.808;2023-06-14T15:27:52;5.65;;;4.10;;
32838;SDS011;19182;41.820;12.808;2023-06-14T15:30:18;5.85;;;4.05;;
32838;SDS011;19182;41.820;12.808;2023-06-14T15:32:44;8.80;;;3.53;;
32838;SDS011;19182;41.820;12.808;2023-06-14T15:35:10;5.03;;;4.25;;
32838;SDS011;19182;41.820;12.808;2023-06-14T15:37:37;4.60;;;3.45;;
32838;SDS011;19182;41.820;12.808;2023-06-14T15:40:04;7.88;;;3.88;;
32838;SDS011;19182;41.820;12.808;2023-06-14T15:42:31;4.10;;;3.70;;
32838;SDS011;19182;41.820;12.808;2023-06-14T15:44:56;4.90;;;3.67;;
32838;SDS011;19182;41.820;12.808;2023-06-14T15:47:22;8.80;;;3.70;;
32838;SDS011;19182;41.820;12.808;2023-06-14T15:49:48;4.68;;;3.70;;
32838;SDS011;19182;41.820;12.808;2023-06-14T15:52:15;7.45;;;3.50;;
32838;SDS011;19182;41.820;12.808;2023-06-14T15:54:40;6.00;;;3.60;;
32838;SDS011;19182;41.820;12.808;2023-06-14T15:57:06;5.28;;;3.63;;
32838;SDS011;19182;41.820;12.808;2023-06-14T15:59:32;5.18;;;3.70;;
32838;SDS011;19182;41.820;12.808;2023-06-14T16:01:58;6.85;;;3.72;;
32838;SDS011;19182;41.820;12.808;2023-06-14T16:04:24;6.65;;;4.00;;
32838;SDS011;19182;41.820;12.808;2023-06-14T16:06:49;4.55;;;3.20;;
32838;SDS011;19182;41.820;12.808;2023-06-14T16:09:15;5.20;;;3.25;;
32838;SDS011;19182;41.820;12.808;2023-06-14T16:11:41;4.65;;;3.53;;
32838;SDS011;19182;41.820;12.808;2023-06-14T16:14:06;5.03;;;4.05;;
32838;SDS011;19182;41.820;12.808;2023-06-14T16:16:32;5.85;;;3.50;;
32838;SDS011;19182;41.820;12.808;2023-06-14T16:18:58;6.88;;;3.80;;
32838;SDS011;19182;41.820;12.808;2023-06-14T16:21:23;5.97;;;3.13;;
32838;SDS011;19182;41.820;12.808;2023-06-14T16:23:50;4.35;;;2.95;;
32838;SDS011;19182;41.820;12.808;2023-06-14T16:26:15;5.32;;;3.40;;